Aérodrome :
LOGIN :

S'inscrire | Disclaimer

   EN    FR    IT 

 










Légende :    VFR   VFR Marginal   IFR   IFR Intensif   IFR Très Intensif
Visi : 
Plafond : 
>= 8 km
>= 3000ft
5 à 8 km
1000 à 3000 ft
1500m à 5 km
500 à 1000 ft
800 à 1500m
200 à 500 ft
< 800m
< 200 ft
Symboles :   Orages  Brouillard  Fortes neiges  Fortes précipitations  Vent > 20 kt
SIGMETs :   Divers  Orages  Givrage  Turbulence  Onde Orograph.  Cendres Volcan.







- Altitude de l'aérodrome : 184 ft
- Code IATA : BRU


EBBR - Bruxelles

DERNIER METAR :
  • 121750Z 20006KT CAVOK 01/M01 Q1013 NOSIG

METARs EXPIRÉS :
  • 121720Z 20005KT CAVOK 01/M01 Q1012 NOSIG
  • 121650Z 20005KT 9000 NSC 01/M01 Q1012 NOSIG
  • 121620Z 20004KT 8000 NSC 01/M00 Q1012 NOSIG
  • 121550Z 21005KT CAVOK 01/M00 Q1012 NOSIG
  • 121520Z 22006KT 9999 FEW010 02/M00 Q1011 NOSIG

TAF TAF EBBR
Valide du 12 à 18h jusqu'au 14 à 00h UTC


121710Z 1218/1324 20010KT 9999 FEW020 SCT040
TEMPO 1300/1324 20015G25KT
TEMPO 1306/1310 4000 RADZ SCT005 BKN007
TEMPO 1315/1319 4000 RA SHRA SCT008 BKN012
Pas de NOTAMs connus pour ce terrain.



MET'MAP, la Météo Aéronautique d'un coup d'oeil ! - Copyright ORBIFLY Décembre 2007 - Disclaimer

ORBIFLY MET'MAP TEAM :

Programmation & Développement : Alexandra Zaïnal
Conception & Développement : Baudouin d'Aumeries
Co-Programmation & Développement : Marc-Olivier Méhu
Soutien technique & logistique : Manuel Goepfert

Contact : metmap@orbifly.com




SOURCES & CREDITS :

   NOAA